Time;durP1;ratioP1;P1;durP2;ratioP2;P2;SDS_P1;SDS_P2;PMS_P1;PMS_P2;Temp;Humidity;BMP_temperature;BMP_pressure;BME280_temperature;BME280_humidity;BME280_pressure;Samples;Min_cycle;Max_cycle;Signal;HPM_P1;HPM_P2
2021/01/25 00:02:04;;;;;;;4.10;3.70;;;;;;;-0.37;72.02;95038.81;5049138;28;20563;-73
2021/01/25 00:04:30;;;;;;;4.47;4.00;;;;;;;-0.38;72.64;95040.59;5051137;28;20190;-71
2021/01/25 00:06:55;;;;;;;5.27;4.10;;;;;;;-0.38;72.52;95032.88;5050007;28;20583;-68
2021/01/25 00:09:20;;;;;;;3.83;3.50;;;;;;;-0.40;72.56;95034.88;5047434;28;20174;-68
2021/01/25 00:11:46;;;;;;;5.13;4.07;;;;;;;-0.43;72.98;95030.91;5050170;28;20185;-68
2021/01/25 00:14:11;;;;;;;4.83;4.00;;;;;;;-0.35;72.90;95029.94;5048386;28;20543;-68
2021/01/25 00:16:36;;;;;;;12.27;4.30;;;;;;;-0.34;72.42;95028.16;5050332;28;20178;-68
2021/01/25 00:19:02;;;;;;;3.77;3.47;;;;;;;-0.38;73.13;95019.22;5049833;28;20650;-72
2021/01/25 00:21:28;;;;;;;6.40;3.60;;;;;;;-0.49;73.04;95012.91;5049608;28;20205;-68
2021/01/25 00:23:53;;;;;;;6.83;3.97;;;;;;;-0.34;73.17;95010.91;5050259;28;20256;-68
2021/01/25 00:26:19;;;;;;;4.90;3.90;;;;;;;-0.37;73.18;95001.00;5049449;28;20199;-68
2021/01/25 00:28:44;;;;;;;5.23;3.80;;;;;;;-0.47;73.70;95005.81;5051226;28;20708;-68
2021/01/25 00:31:10;;;;;;;4.93;3.60;;;;;;;-0.46;73.00;94989.38;5046893;28;20196;-69
2021/01/25 00:33:35;;;;;;;7.17;3.80;;;;;;;-0.57;72.38;94980.50;5042103;28;20303;-70
2021/01/25 00:36:00;;;;;;;4.30;3.50;;;;;;;-0.71;73.88;94984.06;5043065;28;20198;-70
2021/01/25 00:38:26;;;;;;;5.23;3.80;;;;;;;-0.69;74.30;94978.75;5041908;28;20177;-69
2021/01/25 00:40:51;;;;;;;4.80;3.97;;;;;;;-0.68;74.63;94975.97;5043428;28;20206;-69
2021/01/25 00:43:17;;;;;;;5.83;3.93;;;;;;;-0.63;74.67;94986.44;5040852;28;20232;-69
2021/01/25 00:45:43;;;;;;;6.40;4.00;;;;;;;-0.67;74.97;94995.53;5044134;28;20589;-70
2021/01/25 00:48:08;;;;;;;6.77;3.73;;;;;;;-1.05;74.39;94982.53;5046597;28;20196;-68
2021/01/25 00:50:34;;;;;;;3.83;3.53;;;;;;;-0.98;73.98;94980.75;5043955;28;20183;-69
2021/01/25 00:52:59;;;;;;;6.30;4.17;;;;;;;-0.79;73.35;94989.44;5025049;28;20233;-70
2021/01/25 00:55:24;;;;;;;5.47;3.83;;;;;;;-0.73;73.39;94983.50;5022622;28;20189;-70
2021/01/25 00:57:50;;;;;;;4.87;3.57;;;;;;;-0.72;72.90;94981.69;5042478;28;20269;-71
2021/01/25 01:00:18;;;;;;;4.57;3.40;;;;;;;-0.67;73.75;94992.19;5043417;28;20237;-70
2021/01/25 01:02:44;;;;;;;5.27;3.67;;;;;;;-0.63;73.91;94983.88;5042843;28;20195;-70
2021/01/25 01:05:10;;;;;;;4.67;3.27;;;;;;;-0.48;72.97;94975.91;5042453;28;20199;-71
2021/01/25 01:07:36;;;;;;;3.97;3.40;;;;;;;-0.44;72.20;94971.94;5052548;28;20643;-68
2021/01/25 01:10:03;;;;;;;5.43;3.23;;;;;;;-0.45;72.00;94980.66;5052831;28;20177;-72
2021/01/25 01:12:29;;;;;;;4.83;3.30;;;;;;;-0.42;72.08;94981.03;5053267;28;20186;-70
2021/01/25 01:14:55;;;;;;;3.83;3.20;;;;;;;-0.35;71.84;94987.97;5053040;28;20545;-71
2021/01/25 01:17:20;;;;;;;5.33;3.20;;;;;;;-0.37;71.58;94988.16;5052198;28;20185;-70
2021/01/25 01:19:46;;;;;;;6.23;3.83;;;;;;;-0.31;71.96;94976.25;5051921;28;20182;-70
2021/01/25 01:22:11;;;;;;;4.60;3.40;;;;;;;-0.27;72.25;94985.13;5050053;28;20465;-69
2021/01/25 01:24:37;;;;;;;4.20;3.43;;;;;;;-0.18;71.90;94982.16;5052668;28;20654;-69
2021/01/25 01:27:03;;;;;;;3.17;2.87;;;;;;;-0.10;71.54;94975.97;5053108;28;20213;-74
2021/01/25 01:29:28;;;;;;;4.87;3.20;;;;;;;-0.11;72.05;94982.09;5051727;28;20215;-70
2021/01/25 01:31:54;;;;;;;3.17;2.87;;;;;;;-0.13;73.10;94966.88;5052866;28;20232;-68
2021/01/25 01:34:19;;;;;;;4.33;3.07;;;;;;;-0.14;73.24;94965.28;5051808;28;20197;-69
2021/01/25 01:36:45;;;;;;;5.23;3.20;;;;;;;-0.15;73.54;94965.50;5052803;28;20237;-69
2021/01/25 01:39:11;;;;;;;4.60;3.23;;;;;;;-0.18;73.49;94964.13;5051318;28;20208;-69
2021/01/25 01:41:37;;;;;;;5.30;3.07;;;;;;;-0.16;73.61;94956.97;5052078;28;20206;-70
2021/01/25 01:44:07;;;;;;;3.60;2.97;;;;;;;-0.27;73.55;94955.03;5051629;28;20193;-74
2021/01/25 01:46:34;;;;;;;4.17;2.90;;;;;;;-0.10;73.80;94953.59;5042273;28;20543;-69
2021/01/25 01:49:00;;;;;;;3.33;3.03;;;;;;;-0.22;73.90;94947.50;5051883;28;20197;-68
2021/01/25 01:51:26;;;;;;;5.93;2.90;;;;;;;-0.31;74.53;94947.94;5051281;28;20262;-69
2021/01/25 01:53:53;;;;;;;4.77;3.00;;;;;;;-0.36;75.52;94951.13;5034242;28;20186;-69
2021/01/25 01:56:18;;;;;;;3.30;2.70;;;;;;;-0.39;75.71;94955.91;5051196;28;20185;-69
2021/01/25 01:58:44;;;;;;;5.93;3.37;;;;;;;-0.29;75.95;94944.19;5052207;28;20193;-69
2021/01/25 02:01:09;;;;;;;3.90;3.20;;;;;;;-0.30;75.14;94940.03;5050064;28;20217;-70
2021/01/25 02:03:35;;;;;;;3.27;2.87;;;;;;;-0.17;75.22;94929.66;5052034;28;20185;-69
2021/01/25 02:06:03;;;;;;;3.30;2.77;;;;;;;-0.23;75.96;94935.66;5052315;28;20244;-69
2021/01/25 02:08:29;;;;;;;4.40;2.90;;;;;;;-0.15;75.74;94934.59;5033792;28;20543;-69
2021/01/25 02:10:56;;;;;;;3.07;2.77;;;;;;;-0.25;75.84;94939.41;5048414;28;20249;-71
2021/01/25 02:13:23;;;;;;;4.30;2.70;;;;;;;-0.13;75.62;94935.19;5029049;28;20183;-69
2021/01/25 02:15:49;;;;;;;4.30;2.77;;;;;;;-0.14;76.20;94946.47;5042919;28;20243;-69
2021/01/25 02:18:15;;;;;;;2.87;2.57;;;;;;;-0.11;76.00;94946.84;5051399;28;20583;-70
2021/01/25 02:20:42;;;;;;;3.17;2.70;;;;;;;-0.04;75.78;94942.47;5051445;28;20205;-69
2021/01/25 02:23:39;;;;;;;3.70;3.00;;;;;;;-0.02;75.95;94943.06;5051010;28;20182;-75
2021/01/25 02:26:32;;;;;;;3.30;3.00;;;;;;;0.12;75.36;94943.75;5045427;28;20292;-74
2021/01/25 02:28:58;;;;;;;3.70;3.27;;;;;;;0.00;75.55;94941.06;5044559;28;20224;-68
2021/01/25 02:31:23;;;;;;;4.07;3.10;;;;;;;0.05;75.61;94937.09;5050660;28;20578;-68
2021/01/25 02:33:54;;;;;;;4.37;3.30;;;;;;;-0.08;75.98;94938.72;5051686;28;21821;-68
2021/01/25 02:36:21;;;;;;;4.60;3.60;;;;;;;0.00;76.06;94930.75;5050893;28;20205;-68
2021/01/25 02:38:50;;;;;;;4.53;3.50;;;;;;;0.12;75.13;94933.47;5033849;28;20186;-70
2021/01/25 02:41:17;;;;;;;4.57;3.40;;;;;;;0.08;75.76;94939.25;5050709;28;20566;-70
2021/01/25 02:43:45;;;;;;;4.93;3.33;;;;;;;0.10;75.90;94934.69;5051099;28;20236;-71
2021/01/25 02:46:10;;;;;;;4.17;3.67;;;;;;;0.16;76.09;94932.06;5050487;28;20189;-72
2021/01/25 02:48:36;;;;;;;5.23;3.70;;;;;;;0.10;76.31;94940.63;5051870;28;20196;-70
2021/01/25 02:51:04;;;;;;;3.80;3.50;;;;;;;0.18;76.00;94935.22;5050588;28;20239;-70
2021/01/25 02:53:29;;;;;;;4.03;3.50;;;;;;;0.21;75.95;94928.88;5050674;28;20206;-70
2021/01/25 02:55:56;;;;;;;4.23;3.83;;;;;;;0.18;76.01;94932.63;5051210;28;20181;-71
2021/01/25 02:58:23;;;;;;;4.03;3.60;;;;;;;0.16;76.25;94937.22;5050216;28;20668;-71
2021/01/25 03:00:49;;;;;;;3.83;3.53;;;;;;;0.28;75.59;94930.38;5033628;28;20201;-70
2021/01/25 03:03:16;;;;;;;4.37;3.50;;;;;;;0.18;76.73;94927.47;5050479;28;20186;-69
2021/01/25 03:05:42;;;;;;;4.10;3.50;;;;;;;0.22;76.26;94936.41;5051029;28;20186;-68
2021/01/25 03:08:07;;;;;;;4.90;3.50;;;;;;;0.22;77.20;94933.03;5050809;28;20580;-74
2021/01/25 03:10:33;;;;;;;4.27;3.50;;;;;;;0.24;77.31;94947.25;5050288;28;20300;-68
2021/01/25 03:13:03;;;;;;;4.30;3.30;;;;;;;0.19;78.45;94952.25;5050487;28;20213;-68
2021/01/25 03:15:29;;;;;;;4.20;3.10;;;;;;;0.20;78.16;94964.13;5050043;28;20177;-68
2021/01/25 03:17:54;;;;;;;6.43;3.73;;;;;;;0.28;78.79;94963.88;5051181;28;20243;-68
2021/01/25 03:20:20;;;;;;;4.63;3.60;;;;;;;0.32;79.12;94962.47;5049050;28;20193;-68
2021/01/25 03:22:45;;;;;;;4.80;3.57;;;;;;;0.20;79.67;94968.50;5050773;28;20199;-68
2021/01/25 03:25:11;;;;;;;4.10;3.33;;;;;;;0.12;81.29;94969.50;5050319;28;20216;-73
2021/01/25 03:27:37;;;;;;;5.03;4.13;;;;;;;0.12;82.15;94963.56;5050438;28;20572;-68
2021/01/25 03:30:07;;;;;;;4.40;4.00;;;;;;;0.27;82.30;94974.41;5049514;28;20239;-68
2021/01/25 03:32:32;;;;;;;7.93;4.13;;;;;;;-0.03;84.17;94974.16;5050351;28;20221;-68
2021/01/25 03:34:58;;;;;;;4.77;3.93;;;;;;;-0.02;85.43;94963.66;5032403;28;20189;-68
2021/01/25 03:37:23;;;;;;;7.50;4.10;;;;;;;0.15;84.55;94976.84;5050010;28;20189;-68
2021/01/25 03:39:49;;;;;;;4.73;4.10;;;;;;;0.02;85.97;94971.75;5049428;28;20336;-68
2021/01/25 03:42:14;;;;;;;4.30;3.87;;;;;;;0.01;87.03;94965.03;5050010;28;20224;-68
2021/01/25 03:44:39;;;;;;;4.70;3.83;;;;;;;-0.03;87.07;94974.94;5049474;28;20193;-67
2021/01/25 03:47:05;;;;;;;4.93;4.07;;;;;;;-0.10;88.39;94971.59;5049757;28;20252;-68
2021/01/25 03:49:30;;;;;;;6.37;4.40;;;;;;;-0.04;88.09;94977.72;5050046;28;20952;-67
2021/01/25 03:51:55;;;;;;;5.30;4.30;;;;;;;-0.03;88.86;94976.72;5050772;28;20277;-67
2021/01/25 03:54:21;;;;;;;5.00;4.27;;;;;;;0.13;88.46;94970.31;5032107;28;20182;-71
2021/01/25 03:56:46;;;;;;;4.93;4.43;;;;;;;0.05;88.40;94968.78;5049903;28;20260;-68
2021/01/25 03:59:12;;;;;;;5.23;4.50;;;;;;;0.05;88.36;94968.00;5049297;28;20185;-74
2021/01/25 04:01:37;;;;;;;5.37;4.47;;;;;;;0.01;88.36;94962.44;5050695;28;20200;-67
2021/01/25 04:04:02;;;;;;;5.50;4.23;;;;;;;-0.09;89.65;94973.19;5054115;28;20178;-68
2021/01/25 04:06:28;;;;;;;5.27;4.60;;;;;;;-0.06;89.84;94972.00;5054071;28;20776;-69
2021/01/25 04:08:53;;;;;;;4.90;4.40;;;;;;;-0.02;89.63;94975.75;5053416;28;20178;-70
2021/01/25 04:11:19;;;;;;;6.33;4.57;;;;;;;-0.01;89.35;94975.53;5053370;28;20189;-70
2021/01/25 04:13:44;;;;;;;5.20;4.20;;;;;;;0.04;89.27;94972.34;5054335;28;20205;-69
2021/01/25 04:16:10;;;;;;;5.17;4.20;;;;;;;-0.06;90.33;94975.34;5054294;28;20194;-75
2021/01/25 04:18:35;;;;;;;6.17;4.70;;;;;;;-0.06;90.67;94982.31;5054497;28;20178;-69
2021/01/25 04:21:02;;;;;;;7.23;4.70;;;;;;;0.00;89.95;94978.91;5054138;28;20209;-69
2021/01/25 04:23:27;;;;;;;5.83;4.63;;;;;;;-0.07;90.86;94978.16;5053212;28;20174;-69
2021/01/25 04:25:52;;;;;;;5.83;4.63;;;;;;;-0.04;90.77;94964.84;5054144;28;20277;-68
2021/01/25 04:28:18;;;;;;;6.03;5.00;;;;;;;-0.04;90.82;94975.16;5051940;28;20654;-69
2021/01/25 04:30:43;;;;;;;4.73;4.27;;;;;;;-0.02;90.98;94975.75;5054045;28;20189;-69
2021/01/25 04:33:09;;;;;;;5.53;4.93;;;;;;;-0.08;90.65;94979.94;5052544;28;20676;-69
2021/01/25 04:35:39;;;;;;;5.27;4.50;;;;;;;0.00;90.50;94978.91;5053259;28;20190;-69
2021/01/25 04:38:04;;;;;;;5.17;4.70;;;;;;;-0.12;90.53;94978.75;5053961;28;20246;-69
2021/01/25 04:40:30;;;;;;;5.33;4.50;;;;;;;-0.14;91.36;94978.16;5052890;28;20189;-69
2021/01/25 04:42:55;;;;;;;5.63;4.70;;;;;;;-0.13;91.14;94977.19;5053104;28;20190;-69
2021/01/25 04:45:21;;;;;;;6.10;4.40;;;;;;;-0.10;91.67;94971.59;5052686;28;20170;-68
2021/01/25 04:47:48;;;;;;;5.77;5.17;;;;;;;-0.11;92.05;94970.03;5054329;28;20286;-70
2021/01/25 04:50:19;;;;;;;7.27;5.10;;;;;;;-0.12;91.88;94976.19;5051887;28;20209;-75
2021/01/25 04:52:46;;;;;;;6.93;4.50;;;;;;;-0.01;91.28;94978.13;5023980;28;20202;-72
2021/01/25 04:55:12;;;;;;;5.33;4.83;;;;;;;-0.01;91.55;94965.25;5053245;28;20646;-74
2021/01/25 04:57:38;;;;;;;5.57;4.40;;;;;;;-0.08;91.83;94977.34;5053035;28;20190;-70
2021/01/25 05:00:07;;;;;;;6.27;4.63;;;;;;;-0.18;92.07;94978.78;5046373;28;20312;-69
2021/01/25 05:02:36;;;;;;;5.00;4.50;;;;;;;-0.16;92.41;94985.28;5043968;28;20190;-70
2021/01/25 05:05:02;;;;;;;5.57;5.07;;;;;;;-0.11;92.00;94982.09;5052192;28;20658;-70
2021/01/25 05:07:28;;;;;;;6.17;4.93;;;;;;;-0.15;92.64;94984.31;5035043;28;20548;-69
2021/01/25 05:09:54;;;;;;;5.87;4.90;;;;;;;0.00;92.04;94978.91;5035679;28;20261;-69
2021/01/25 05:12:19;;;;;;;6.77;5.43;;;;;;;0.03;91.89;94985.41;5051130;28;20186;-69
2021/01/25 05:14:45;;;;;;;6.13;5.00;;;;;;;-0.01;91.73;94987.63;5052167;28;20592;-70
2021/01/25 05:17:11;;;;;;;6.10;5.47;;;;;;;-0.08;92.27;94979.13;5055481;28;20194;-71
2021/01/25 05:19:38;;;;;;;6.03;5.50;;;;;;;-0.01;91.83;94985.84;5054294;28;20178;-69
2021/01/25 05:22:19;;;;;;;6.63;5.57;;;;;;;-0.02;92.06;94986.84;5051811;28;20284;-71
2021/01/25 05:24:54;;;;;;;7.73;5.63;;;;;;;0.06;91.97;94990.94;5052280;28;20184;-69
2021/01/25 05:27:30;;;;;;;6.73;5.60;;;;;;;-0.02;91.57;94991.19;5051922;28;20674;-69
2021/01/25 05:30:09;;;;;;;6.80;6.00;;;;;;;0.02;91.80;94994.13;5050397;28;20269;-68
2021/01/25 05:32:48;;;;;;;6.37;5.30;;;;;;;-0.09;92.79;94998.94;5051935;28;20225;-67
2021/01/25 05:35:16;;;;;;;6.10;5.50;;;;;;;-0.06;92.80;94995.94;5034489;28;20213;-75
2021/01/25 05:37:43;;;;;;;6.97;5.73;;;;;;;-0.10;92.80;94997.34;5035082;28;20182;-68
2021/01/25 05:40:14;;;;;;;6.10;5.30;;;;;;;-0.04;92.05;94999.13;5052948;28;20170;-68
2021/01/25 05:42:41;;;;;;;6.87;6.17;;;;;;;-0.08;92.72;94992.81;5050813;28;20212;-69
2021/01/25 05:45:12;;;;;;;7.47;6.20;;;;;;;-0.14;92.61;94996.19;5052520;28;20205;-70
2021/01/25 05:47:45;;;;;;;7.53;5.67;;;;;;;-0.02;92.15;94999.72;5034135;28;20897;-70
2021/01/25 05:50:23;;;;;;;7.10;6.10;;;;;;;-0.05;92.14;94997.53;5052343;28;20296;-70
2021/01/25 05:52:49;;;;;;;7.43;6.20;;;;;;;0.00;92.23;95008.00;5036264;28;20677;-70
2021/01/25 05:55:14;;;;;;;8.27;6.30;;;;;;;-0.04;92.82;95009.41;5034373;28;20286;-76
2021/01/25 05:57:40;;;;;;;10.07;7.07;;;;;;;-0.05;92.54;94999.31;5050549;28;20539;-70
2021/01/25 06:00:07;;;;;;;8.80;6.27;;;;;;;-0.08;92.87;95003.09;5051210;28;20276;-70
2021/01/25 06:02:36;;;;;;;7.10;6.40;;;;;;;-0.09;92.78;95005.88;5032950;28;20198;-71
2021/01/25 06:05:05;;;;;;;7.30;6.50;;;;;;;-0.03;92.77;95003.28;5052681;28;20232;-70
2021/01/25 06:07:32;;;;;;;7.30;6.20;;;;;;;0.02;92.73;95005.22;5033025;28;20190;-70
2021/01/25 06:10:02;;;;;;;7.13;6.17;;;;;;;0.07;92.93;95007.97;5052360;28;20178;-69
2021/01/25 06:12:38;;;;;;;7.37;6.50;;;;;;;0.06;92.35;95008.97;5050644;28;20194;-68
2021/01/25 06:15:06;;;;;;;8.80;6.93;;;;;;;-0.03;93.04;95008.41;5051877;28;20177;-71
2021/01/25 06:17:38;;;;;;;7.73;6.40;;;;;;;0.03;92.36;95016.31;5050554;28;20185;-71
2021/01/25 06:20:06;;;;;;;8.33;6.37;;;;;;;-0.05;92.61;95012.97;5018014;28;20178;-71
2021/01/25 06:22:31;;;;;;;9.93;6.70;;;;;;;-0.07;92.69;95022.72;5051322;28;20237;-71
2021/01/25 06:25:02;;;;;;;7.43;6.60;;;;;;;-0.12;92.34;95021.75;5051861;28;20212;-70
2021/01/25 06:27:30;;;;;;;7.53;6.37;;;;;;;-0.05;92.77;95023.28;5049518;28;20285;-69
2021/01/25 06:30:01;;;;;;;6.83;6.13;;;;;;;-0.19;92.65;95026.91;5051477;28;20178;-69
2021/01/25 06:32:39;;;;;;;7.33;6.60;;;;;;;-0.09;92.32;95027.25;5050101;28;20286;-72
2021/01/25 06:35:06;;;;;;;7.10;6.40;;;;;;;-0.16;92.73;95033.41;5050262;28;20212;-71
2021/01/25 06:37:37;;;;;;;7.87;6.80;;;;;;;-0.06;92.18;95031.22;5050675;28;20205;-67
2021/01/25 06:40:07;;;;;;;8.50;7.60;;;;;;;-0.73;94.19;95036.72;5051775;28;20261;-67
2021/01/25 06:42:33;;;;;;;8.03;7.23;;;;;;;-0.81;94.72;95037.72;5033091;28;20208;-74
2021/01/25 06:45:03;;;;;;;9.77;7.80;;;;;;;-0.51;94.55;95044.03;5052263;28;20185;-73
2021/01/25 06:47:30;;;;;;;10.80;7.47;;;;;;;-0.45;94.67;95045.75;5050913;28;20182;-74
2021/01/25 06:49:58;;;;;;;8.50;6.43;;;;;;;-0.32;94.26;95044.94;5029797;28;20190;-75
2021/01/25 06:52:27;;;;;;;8.40;6.90;;;;;;;-0.21;93.49;95049.47;5022915;28;20182;-79
2021/01/25 06:55:01;;;;;;;8.90;6.83;;;;;;;-0.20;93.07;95053.63;5038861;28;20183;-74
2021/01/25 06:57:27;;;;;;;8.47;7.20;;;;;;;-0.09;93.08;95055.59;5016691;28;20696;-70
2021/01/25 06:59:54;;;;;;;8.50;6.80;;;;;;;-0.09;92.67;95057.38;5051386;28;20265;-70
2021/01/25 07:02:25;;;;;;;9.40;6.27;;;;;;;-0.16;92.89;95057.38;5049562;28;20284;-70
2021/01/25 07:04:57;;;;;;;9.30;5.97;;;;;;;-0.14;93.07;95070.84;5050869;28;20252;-69
2021/01/25 07:07:30;;;;;;;7.77;5.90;;;;;;;-0.07;93.28;95071.63;5036894;28;20200;-69
2021/01/25 07:09:57;;;;;;;8.83;6.17;;;;;;;-0.04;93.19;95078.13;5050901;28;20193;-69
2021/01/25 07:12:25;;;;;;;8.60;5.97;;;;;;;-0.08;92.37;95085.50;5032368;28;20185;-68
2021/01/25 07:14:52;;;;;;;8.67;6.00;;;;;;;-0.07;92.99;95081.94;5050183;28;20182;-71
2021/01/25 07:17:17;;;;;;;6.47;5.77;;;;;;;-0.08;93.22;95082.91;5032038;28;20248;-74
2021/01/25 07:19:44;;;;;;;9.83;6.10;;;;;;;-0.04;93.14;95089.22;5049923;28;20644;-70
2021/01/25 07:22:10;;;;;;;9.03;5.60;;;;;;;-0.13;93.49;95082.72;5033284;28;20210;-70
2021/01/25 07:24:37;;;;;;;7.50;5.40;;;;;;;-0.01;93.62;95086.28;5050343;28;20174;-70
2021/01/25 07:27:04;;;;;;;8.37;5.80;;;;;;;0.07;93.36;95098.13;5049675;28;20189;-71
2021/01/25 07:29:30;;;;;;;8.60;5.77;;;;;;;0.11;92.61;95098.50;5048382;28;20209;-69
2021/01/25 07:31:56;;;;;;;8.07;5.67;;;;;;;0.04;93.02;95095.16;5050246;28;20304;-71
2021/01/25 07:34:25;;;;;;;8.87;5.87;;;;;;;0.12;92.93;95103.44;5050784;28;20181;-71
2021/01/25 07:36:51;;;;;;;6.67;5.40;;;;;;;0.20;92.19;95103.22;5050835;28;20603;-69
2021/01/25 07:39:18;;;;;;;8.63;5.70;;;;;;;0.26;91.85;95107.56;5054149;28;20264;-74
2021/01/25 07:41:44;;;;;;;7.70;5.47;;;;;;;0.31;92.10;95107.75;5054514;28;20205;-70
2021/01/25 07:44:12;;;;;;;8.80;5.77;;;;;;;0.21;92.22;95114.31;5052266;28;20677;-70
2021/01/25 07:46:38;;;;;;;8.97;5.23;;;;;;;0.33;91.89;95116.06;5054156;28;20197;-70
2021/01/25 07:49:04;;;;;;;6.60;5.63;;;;;;;0.31;92.05;95123.22;5053019;28;20189;-70
2021/01/25 07:51:33;;;;;;;8.83;5.73;;;;;;;0.34;91.58;95125.38;5043182;28;20696;-71
2021/01/25 07:53:59;;;;;;;10.13;6.17;;;;;;;0.33;92.04;95126.38;5042894;28;20624;-70
2021/01/25 07:56:26;;;;;;;13.87;6.13;;;;;;;0.39;91.66;95133.28;5052537;28;20273;-70
2021/01/25 07:59:14;;;;;;;7.93;5.70;;;;;;;0.30;92.07;95137.06;5053420;28;20200;-71
2021/01/25 08:02:19;;;;;;;14.13;6.90;;;;;;;0.45;91.66;95130.91;5036308;28;20205;-70
2021/01/25 08:04:45;;;;;;;15.50;8.00;;;;;;;0.44;91.54;95139.63;4973610;28;20246;-71
2021/01/25 08:07:15;;;;;;;13.27;6.43;;;;;;;0.43;91.71;95143.97;5024497;28;20670;-71
2021/01/25 08:09:44;;;;;;;8.83;5.73;;;;;;;0.38;92.08;95143.81;5053629;28;20264;-70
2021/01/25 08:12:11;;;;;;;10.23;5.27;;;;;;;0.49;92.14;95144.94;5054431;28;20201;-71
2021/01/25 08:14:41;;;;;;;8.03;5.13;;;;;;;0.46;92.28;95147.91;5053167;28;20209;-70
2021/01/25 08:17:20;;;;;;;7.27;5.63;;;;;;;0.47;92.36;95147.72;5052961;28;20623;-71
2021/01/25 08:19:58;;;;;;;11.63;5.97;;;;;;;0.48;92.75;95149.31;5053690;28;20650;-71
2021/01/25 08:22:38;;;;;;;8.57;5.67;;;;;;;0.41;93.03;95153.69;5053146;28;20331;-71
2021/01/25 08:25:05;;;;;;;8.77;5.50;;;;;;;0.43;92.77;95151.72;5036245;28;20258;-76
2021/01/25 08:27:32;;;;;;;8.10;4.87;;;;;;;0.39;92.93;95160.84;5052902;28;20185;-69
2021/01/25 08:30:05;;;;;;;9.93;5.73;;;;;;;0.36;93.38;95162.03;5053176;28;20561;-69
2021/01/25 08:32:41;;;;;;;7.57;5.63;;;;;;;0.31;93.64;95169.59;5053118;28;20220;-68
2021/01/25 08:35:08;;;;;;;8.03;5.30;;;;;;;0.38;93.35;95170.34;5035341;28;20633;-70
2021/01/25 08:37:35;;;;;;;6.40;5.43;;;;;;;0.42;93.44;95175.88;5052187;28;20201;-74
2021/01/25 08:40:22;;;;;;;8.77;5.67;;;;;;;0.46;93.93;95174.47;5053797;28;20214;-70
2021/01/25 08:42:48;;;;;;;10.00;5.70;;;;;;;0.36;93.58;95172.34;5051803;28;20674;-71
2021/01/25 08:45:35;;;;;;;7.50;5.67;;;;;;;0.49;93.85;95181.03;5053669;28;20177;-73
2021/01/25 08:48:03;;;;;;;7.90;4.97;;;;;;;0.52;94.38;95188.34;5038050;28;20189;-71
2021/01/25 08:50:29;;;;;;;8.27;5.40;;;;;;;0.58;94.21;95188.31;5033611;28;20189;-71
2021/01/25 08:53:00;;;;;;;6.73;5.07;;;;;;;0.67;93.63;95181.94;5035278;28;20186;-73
2021/01/25 08:55:37;;;;;;;7.20;5.30;;;;;;;0.70;93.71;95194.44;5051391;28;20189;-72
2021/01/25 08:58:33;;;;;;;6.10;5.07;;;;;;;0.93;92.94;95201.69;5035417;28;20633;-76
2021/01/25 09:00:59;;;;;;;6.73;5.47;;;;;;;1.00;92.27;95199.88;5052980;28;20217;-72
2021/01/25 09:03:25;;;;;;;6.53;5.27;;;;;;;1.09;91.74;95206.34;5053026;28;20573;-72
2021/01/25 09:05:54;;;;;;;6.87;4.73;;;;;;;1.00;92.05;95209.38;5035473;28;20202;-69
2021/01/25 09:08:21;;;;;;;7.03;5.50;;;;;;;1.09;93.37;95201.19;5052456;28;20503;-77
2021/01/25 09:10:47;;;;;;;8.50;4.93;;;;;;;0.98;92.78;95206.22;5052641;28;20182;-76
2021/01/25 09:13:12;;;;;;;5.33;4.83;;;;;;;0.91;92.91;95215.75;5053344;28;20652;-68
2021/01/25 09:15:38;;;;;;;5.90;4.93;;;;;;;1.04;93.12;95215.72;5052156;28;20256;-68
2021/01/25 09:18:04;;;;;;;6.73;5.43;;;;;;;1.12;92.19;95221.41;5049541;28;20187;-70
2021/01/25 09:20:30;;;;;;;7.23;5.47;;;;;;;1.09;92.09;95221.03;5032585;28;20182;-69
2021/01/25 09:22:55;;;;;;;6.23;4.53;;;;;;;1.20;91.85;95222.97;5034164;28;20567;-69
2021/01/25 09:25:23;;;;;;;5.60;4.93;;;;;;;1.30;91.04;95232.84;5051602;28;20197;-68
2021/01/25 09:27:48;;;;;;;5.67;4.83;;;;;;;1.25;91.23;95229.09;5053085;28;20228;-72
2021/01/25 09:30:16;;;;;;;5.57;4.97;;;;;;;1.46;90.67;95235.72;5052246;28;20185;-72
2021/01/25 09:32:42;;;;;;;6.37;4.73;;;;;;;1.45;90.47;95234.13;5052062;28;20221;-70
2021/01/25 09:35:10;;;;;;;5.13;4.70;;;;;;;1.50;90.62;95244.66;5052856;28;20236;-70
2021/01/25 09:37:36;;;;;;;5.33;4.83;;;;;;;1.61;90.00;95243.19;5050559;28;20196;-72
2021/01/25 09:40:05;;;;;;;7.07;5.10;;;;;;;1.57;90.13;95250.53;5051950;28;20634;-72
2021/01/25 09:42:31;;;;;;;7.13;5.23;;;;;;;1.55;90.14;95256.94;5051533;28;20221;-73
2021/01/25 09:44:57;;;;;;;6.23;5.00;;;;;;;1.58;90.64;95259.06;5052654;28;20232;-76
2021/01/25 09:47:22;;;;;;;6.50;5.10;;;;;;;1.59;90.60;95266.63;5051518;28;20186;-70
2021/01/25 09:49:48;;;;;;;7.83;5.30;;;;;;;1.63;91.33;95269.56;5033758;28;20174;-72
2021/01/25 09:52:13;;;;;;;7.30;5.00;;;;;;;1.68;91.78;95274.91;5033766;28;20277;-69
2021/01/25 09:54:39;;;;;;;7.73;5.43;;;;;;;1.72;91.62;95283.84;5045848;28;20190;-69
2021/01/25 09:57:05;;;;;;;6.10;5.50;;;;;;;1.67;91.54;95279.25;5041729;28;20273;-68
2021/01/25 09:59:30;;;;;;;8.03;5.47;;;;;;;1.68;91.39;95280.06;5045737;28;20672;-69
2021/01/25 10:01:55;;;;;;;8.63;4.93;;;;;;;1.71;91.59;95284.81;5032745;28;20204;-69
2021/01/25 10:04:21;;;;;;;8.90;5.57;;;;;;;1.65;91.37;95288.22;5045274;28;20206;-69
2021/01/25 10:06:46;;;;;;;7.63;5.17;;;;;;;1.63;91.20;95288.44;5043997;28;20197;-71
2021/01/25 10:09:12;;;;;;;7.67;5.07;;;;;;;1.72;91.17;95293.38;5052119;28;20264;-71
2021/01/25 10:11:37;;;;;;;5.60;5.10;;;;;;;1.64;91.77;95295.19;5050946;28;20186;-65
2021/01/25 10:14:03;;;;;;;4.97;4.43;;;;;;;1.75;91.00;95298.91;5033976;28;20191;-67
2021/01/25 10:16:28;;;;;;;5.23;4.63;;;;;;;1.74;90.37;95304.25;5051738;28;20216;-74
2021/01/25 10:18:53;;;;;;;6.30;4.33;;;;;;;1.68;90.42;95301.50;5034075;28;20185;-66
2021/01/25 10:21:19;;;;;;;7.63;4.50;;;;;;;1.89;91.00;95315.13;5051041;28;20197;-70
2021/01/25 10:23:49;;;;;;;5.90;4.87;;;;;;;1.86;90.54;95318.09;5050972;28;20201;-71
2021/01/25 10:26:14;;;;;;;6.47;4.90;;;;;;;1.92;90.31;95315.47;5049892;28;20178;-68
2021/01/25 10:28:40;;;;;;;4.40;4.00;;;;;;;2.02;90.82;95317.59;5032430;28;20209;-69
2021/01/25 10:31:06;;;;;;;5.67;5.00;;;;;;;2.00;90.25;95323.00;5051279;28;20192;-68
2021/01/25 10:33:31;;;;;;;5.03;4.40;;;;;;;2.14;89.46;95328.03;5050041;28;20225;-67
2021/01/25 10:35:57;;;;;;;7.53;4.73;;;;;;;2.22;90.25;95322.63;5033277;28;20193;-68
2021/01/25 10:38:22;;;;;;;4.87;4.37;;;;;;;2.36;88.58;95322.31;5051203;28;20186;-68
2021/01/25 10:40:47;;;;;;;7.43;4.53;;;;;;;2.50;88.29;95328.19;5041444;28;20628;-68
2021/01/25 10:43:13;;;;;;;7.43;4.10;;;;;;;2.84;87.60;95330.22;5047503;28;20570;-68
2021/01/25 10:45:38;;;;;;;5.10;4.30;;;;;;;2.96;86.33;95321.75;5050616;28;20182;-68
2021/01/25 10:48:05;;;;;;;4.67;4.00;;;;;;;2.90;86.11;95336.34;5051485;28;20261;-68
2021/01/25 10:50:30;;;;;;;5.93;3.97;;;;;;;2.99;86.01;95339.47;5032922;28;20708;-69
2021/01/25 10:52:56;;;;;;;5.63;4.00;;;;;;;2.92;86.17;95347.28;5050847;28;20182;-69
2021/01/25 10:55:21;;;;;;;5.83;3.70;;;;;;;2.63;86.41;95347.94;5049995;28;20178;-68
2021/01/25 10:57:47;;;;;;;5.10;4.00;;;;;;;2.40;87.66;95346.72;5039313;28;20833;-68
2021/01/25 11:00:17;;;;;;;5.33;4.10;;;;;;;2.29;89.35;95352.59;5050914;28;20590;-69
2021/01/25 11:02:44;;;;;;;4.77;3.80;;;;;;;2.17;90.40;95354.28;5049796;28;20803;-69
2021/01/25 11:05:13;;;;;;;4.07;3.67;;;;;;;2.12;90.26;95359.25;5045443;28;20225;-69
2021/01/25 11:07:40;;;;;;;6.27;4.50;;;;;;;2.20;90.61;95365.97;5023472;28;20182;-69
2021/01/25 11:10:08;;;;;;;5.77;4.40;;;;;;;2.25;90.18;95359.19;5031321;28;20192;-70
2021/01/25 11:12:33;;;;;;;4.97;4.47;;;;;;;2.37;90.66;95367.06;5043094;28;20178;-69
2021/01/25 11:14:59;;;;;;;7.40;4.10;;;;;;;2.64;90.66;95362.47;5049998;28;20235;-70
2021/01/25 11:17:25;;;;;;;5.63;4.50;;;;;;;2.82;88.67;95367.69;5050444;28;20553;-69
2021/01/25 11:19:51;;;;;;;4.80;4.30;;;;;;;2.95;88.06;95371.94;5033098;28;20197;-71
2021/01/25 11:22:17;;;;;;;6.70;3.30;;;;;;;3.07;86.48;95376.19;5032992;28;20198;-70
2021/01/25 11:24:43;;;;;;;3.10;2.90;;;;;;;2.61;84.72;95365.47;5048482;28;20252;-69
2021/01/25 11:27:08;;;;;;;3.70;3.40;;;;;;;2.95;84.89;95372.75;5045903;28;20186;-70
2021/01/25 11:29:35;;;;;;;4.30;3.90;;;;;;;3.09;85.71;95373.38;5041382;28;20647;-69
2021/01/25 11:32:02;;;;;;;5.50;3.53;;;;;;;3.06;85.48;95381.59;5043944;28;20240;-70
2021/01/25 11:34:28;;;;;;;4.67;3.10;;;;;;;2.91;85.38;95376.75;5050210;28;20201;-72
2021/01/25 11:36:55;;;;;;;5.10;3.00;;;;;;;3.19;84.44;95378.84;5032178;28;20178;-71
2021/01/25 11:39:21;;;;;;;2.97;2.73;;;;;;;3.03;83.84;95384.59;5032948;28;20249;-72